CheckWX is a tool to help pilots better visualize weather data.  It is not intended as a substitute for an official pre-flight weather briefing.

08:55:58 UTC

KNRS METAR
Imperial Beach Nolf (Ream Field) Airport
Imperial Beach, California, USA
Current

60 mins ago

KNRS 220756Z AUTO 8SM -SN SCT037 OVC045 A2983 RMK AO2 SLP102 PNO $
Observed
May-22 @ 07:56 UTC
Visibility
8 SM
Flight Rules
VFR
Conditions
Light Snow
Cloud Levels
  • Scattered at 3,700' AGL
  • Overcast at 4,500' AGL
Altimeter
29.83" Hg
Pressure
1010.12 hPa
Previous

2 hours ago

KNRS 220656Z AUTO 9SM -SN SCT023 OVC044 A2985 RMK AO2 RAB08E09SNB09 SLP109 PNO $
Observed
May-22 @ 06:56 UTC
Visibility
9 SM
Flight Rules
VFR
Conditions
Light Snow
Cloud Levels
  • Scattered at 2,300' AGL
  • Overcast at 4,400' AGL
Altimeter
29.85" Hg
Pressure
1010.82 hPa
Previous

3 hours ago

KNRS 220556Z 28010G18KT 10SM SCT028 BKN035 OVC050 16/10 A2986 RMK AO2 SLP112 6//// T01560100 10183 20156 58001 $
Observed
May-22 @ 05:56 UTC
Wind
  • 280° at 10 KTS
  • Gusting to 18 KTS
Visibility
10 SM
Flight Rules
VFR
Cloud Levels
  • Scattered at 2,800' AGL
  • Broken at 3,500' AGL
  • Overcast at 5,000' AGL
Temperature
16°C / 61°F
Dewpoint
10°C / 50°F
Humidity
68%
Altimeter
29.86" Hg
Pressure
1011.22 hPa